Decoded Metar for LFSB (MULHOUSE in FRANCE) (IATA:MLH) | Meteo·Mobile Aviation Weather
aviador You're here:

LFSB Decoded Metar

MULHOUSE in FRANCE
Report Time2019-02-21 23:30:00
UTC Time2019-02-21 23:57:34
Flight Rules vfr VFR
Wind150° at 03 kt
W.Decomp.*RWY 15: 3.0 kt HW 0.1 kt LCW
RWY 08: 1.1 kt HW 2.8 kt RCW
W.Rank150° ranks 20
Current wind is below 150° avg. (4.6)
Visibility9999 m
Phenomena:N/A
Clouds:N/A
Expected CloudBase > 1,200 ft AGL from Temp-Dew spread
CeilingNone
Temp03°C (ISA -10)
Dew Point00°C (81% RH)
AAT-0.1°C
QNH1031 hPa
Density Alt-873 ft
Elevation889 ft
Report Wrong Elevation
Raw Report
LFSB 212330Z AUTO 15003KT CAVOK 03/M00 Q1031 NOSIG=

Extra information for LFSB:More info

Metar Taf Metar & Taf Last 4 Metars F.Rules Stats Wind Profile Meteogram Temp Stats Airport Information Weather charts Add Link Nearby VenuesMetar ALERT Operation Metar Decoded Social comments